SE Lincoln WX Station Historical Data
 
Daily Summary for February 08, 2023 Units:  English    Metric   Both
Daily Weekly Monthly Yearly
  Current: High: Low: Average:
Temperature: 28.7 °F 30.6 °F 26.7 °F 28.5 °F
Dew Point: 26.1 °F 26.1 °F 23.2 °F 24.4 °F
Humidity: 90% 90% 77% 85%
Wind Speed: 0.2mph 0.6mph 0mph 0mph
Wind Gust: 1mph 2mph - -
WindSSW - - SSW
Pressure: 30.25 in 30.27 in 30.23 in -
Precipitation: 0.00 in      
 
 
Tabular Data for February 08, 2023
Time Temperature Dew Point Pressure Wind Wind Speed Wind Gust Humidity Rainfall Rate (Hourly) solar
00:04 30.6 °F 24.3 °F 30.27 in Calm     77% 0.00 in 0 W/m2
00:09 30.5 °F 24.2 °F 30.27 in Calm     77% 0.00 in 0 W/m2
00:14 30.4 °F 24.2 °F 30.27 in Calm     77.4% 0.00 in 0 W/m2
00:19 30.3 °F 24.3 °F 30.27 in Calm     78% 0.00 in 0 W/m2
00:24 30.2 °F 24.4 °F 30.27 in Calm     78.6% 0.00 in 0 W/m2
00:29 30.2 °F 24.6 °F 30.27 in Calm     79.4% 0.00 in 0 W/m2
00:34 30.2 °F 24.8 °F 30.27 in Calm     80% 0.00 in 0 W/m2
00:39 30.2 °F 25 °F 30.27 in Calm     80.7% 0.00 in 0 W/m2
00:44 30.2 °F 25.1 °F 30.27 in Calm     81% 0.00 in 0 W/m2
00:49 30.1 °F 25 °F 30.26 in Calm     81% 0.00 in 0 W/m2
00:54 30 °F 24.9 °F 30.27 in Calm     81% 0.00 in 0 W/m2
00:59 29.8 °F 24.7 °F 30.27 in Calm     81% 0.00 in 0 W/m2
01:04 29.8 °F 24.8 °F 30.26 in Calm     81.5% 0.00 in 0 W/m2
01:09 29.7 °F 24.9 °F 30.26 in Calm     82% 0.00 in 0 W/m2
01:14 29.7 °F 24.9 °F 30.26 in Calm     82% 0.00 in 0 W/m2
01:19 29.5 °F 24.7 °F 30.26 in Calm     82% 0.00 in 0 W/m2
01:24 29.5 °F 24.9 °F 30.26 in Calm     82.8% 0.00 in 0 W/m2
01:29 29.4 °F 24.9 °F 30.25 in Calm     83% 0.00 in 0 W/m2
01:34 29.3 °F 24.8 °F 30.25 in Calm     83% 0.00 in 0 W/m2
01:39 29.2 °F 24.8 °F 30.25 in Calm     83.2% 0.00 in 0 W/m2
01:44 29.1 °F 24.7 °F 30.25 in Calm     83.2% 0.00 in 0 W/m2
01:49 29 °F 24.7 °F 30.25 in Calm     83.4% 0.00 in 0 W/m2
01:54 28.9 °F 24.7 °F 30.25 in Calm     84% 0.00 in 0 W/m2
01:59 28.8 °F 24.5 °F 30.25 in Calm     83.5% 0.00 in 0 W/m2
02:04 28.7 °F 24.3 °F 30.25 in Calm     83.3% 0.00 in 0 W/m2
02:09 28.6 °F 24.2 °F 30.25 in Calm     83.4% 0.00 in 0 W/m2
02:14 28.5 °F 24.1 °F 30.25 in Calm     83.2% 0.00 in 0 W/m2
02:19 28.4 °F 24.2 °F 30.25 in Calm     84% 0.00 in 0 W/m2
02:24 28.4 °F 24.2 °F 30.25 in Calm     84% 0.00 in 0 W/m2
02:29 28.4 °F 24.2 °F 30.25 in Calm     84% 0.00 in 0 W/m2
02:34 28.3 °F 24.4 °F 30.25 in Calm     85% 0.00 in 0 W/m2
02:39 28.2 °F 24.3 °F 30.25 in Calm     85% 0.00 in 0 W/m2
02:44 28.2 °F 24.3 °F 30.25 in Calm     85% 0.00 in 0 W/m2
02:49 28.1 °F 24.2 °F 30.25 in Calm     85% 0.00 in 0 W/m2
02:54 28 °F 24.1 °F 30.24 in Calm     85% 0.00 in 0 W/m2
02:59 27.9 °F 24 °F 30.24 in Calm     85% 0.00 in 0 W/m2
03:04 27.8 °F 23.9 °F 30.24 in Calm     85% 0.00 in 0 W/m2
03:09 27.7 °F 23.9 °F 30.24 in Calm     85.4% 0.00 in 0 W/m2
03:14 27.6 °F 24 °F 30.24 in Calm     86% 0.00 in 0 W/m2
03:19 27.5 °F 23.8 °F 30.24 in Calm     86% 0.00 in 0 W/m2
03:24 27.3 °F 23.7 °F 30.24 in Calm     86% 0.00 in 0 W/m2
03:29 27.1 °F 23.4 °F 30.24 in Calm     85.6% 0.00 in 0 W/m2
03:34 27 °F 23.4 °F 30.24 in Calm     86% 0.00 in 0 W/m2
03:39 27 °F 23.4 °F 30.24 in Calm     86% 0.00 in 0 W/m2
03:44 26.9 °F 23.3 °F 30.24 in Calm     86% 0.00 in 0 W/m2
03:49 26.9 °F 23.3 °F 30.24 in Calm     86% 0.00 in 0 W/m2
03:54 26.8 °F 23.2 °F 30.24 in Calm     86% 0.00 in 0 W/m2
03:59 26.7 °F 23.2 °F 30.24 in Calm     86.4% 0.00 in 0 W/m2
04:04 26.7 °F 23.4 °F 30.24 in Calm     87% 0.00 in 0 W/m2
04:09 26.8 °F 23.4 °F 30.24 in Calm     87% 0.00 in 0 W/m2
04:14 26.9 °F 23.6 °F 30.23 in Calm     87.2% 0.00 in 0 W/m2
04:19 27 °F 23.9 °F 30.24 in Calm   1 mph 88% 0.00 in 0 W/m2
04:24 27.2 °F 24.1 °F 30.24 in SSW 0.2 mph 2 mph 88% 0.00 in 0 W/m2
04:29 27.4 °F 24.3 °F 30.24 in SSW 0.1 mph 1 mph 88% 0.00 in 0 W/m2
04:34 27.6 °F 24.7 °F 30.24 in SSW 0.1 mph 1 mph 88.8% 0.00 in 0 W/m2
04:39 27.7 °F 24.9 °F 30.24 in SSW 0.1 mph 1 mph 89% 0.00 in 0 W/m2
04:44 27.8 °F 25 °F 30.24 in SSW 0.4 mph 2 mph 89% 0.00 in 0 W/m2
04:49 27.9 °F 25 °F 30.24 in Calm   1 mph 89% 0.00 in 0 W/m2
04:54 27.9 °F 25 °F 30.24 in SSW 0.2 mph 1 mph 89% 0.00 in 0 W/m2
04:59 27.9 °F 25.1 °F 30.24 in SSW 0.6 mph 2 mph 89% 0.00 in 0 W/m2
05:04 28 °F 25.2 °F 30.24 in SSW 0.6 mph 2 mph 89% 0.00 in 0 W/m2
05:09 28.2 °F 25.3 °F 30.25 in SSW 0.1 mph 2 mph 89% 0.00 in 0 W/m2
05:14 28.3 °F 25.6 °F 30.25 in SSW 0.2 mph 1 mph 89.5% 0.00 in 0 W/m2
05:19 28.4 °F 25.7 °F 30.25 in SSW 0.1 mph 2 mph 89.3% 0.00 in 0 W/m2
05:24 28.6 °F 26.1 °F 30.25 in SSW 0.1 mph 2 mph 90% 0.00 in 0 W/m2
05:28 28.7 °F 26.1 °F 30.25 in SSW 0.2 mph 1 mph 90% 0.00 in 0 W/m2
66th and South
Compliments of Weather Underground - 12.65 mb